Time;durP1;ratioP1;P1;durP2;ratioP2;P2;SDS_P1;SDS_P2;PMS_P1;PMS_P2;Temp;Humidity;BMP_temperature;BMP_pressure;BME280_temperature;BME280_humidity;BME280_pressure;Samples;Min_cycle;Max_cycle;Signal;HPM_P1;HPM_P2
2022/04/15 00:00:39;;;;;;;14.10;5.25;;;;;;;;;;5027659;28;20045;-56
2022/04/15 00:03:06;;;;;;;10.75;5.47;;;;;;;;;;5027804;28;20045;-57
2022/04/15 00:05:36;;;;;;;12.63;5.10;;;;;;;;;;5027523;28;20522;-57
2022/04/15 00:08:03;;;;;;;10.20;4.85;;;;;;;;;;5027706;28;20085;-57
2022/04/15 00:10:30;;;;;;;12.63;5.22;;;;;;;;;;5028040;28;20053;-56
2022/04/15 00:12:56;;;;;;;10.57;5.13;;;;;;;;;;5027165;28;20077;-56
2022/04/15 00:15:23;;;;;;;15.50;6.20;;;;;;;;;;5027701;28;20041;-56
2022/04/15 00:17:49;;;;;;;8.25;4.80;;;;;;;;;;5027337;28;20484;-56
2022/04/15 00:20:15;;;;;;;14.02;5.28;;;;;;;;;;5026984;28;20575;-56
2022/04/15 00:22:41;;;;;;;8.93;4.55;;;;;;;;;;5027564;28;20049;-57
2022/04/15 00:25:09;;;;;;;9.13;5.15;;;;;;;;;;5027352;28;20045;-56
2022/04/15 00:27:35;;;;;;;10.10;5.10;;;;;;;;;;5026265;28;20056;-56
2022/04/15 00:30:02;;;;;;;9.93;5.10;;;;;;;;;;5027215;28;20045;-56
2022/04/15 00:32:28;;;;;;;12.63;4.90;;;;;;;;;;5027781;28;20096;-56
2022/04/15 00:34:54;;;;;;;8.93;5.07;;;;;;;;;;5026642;28;20559;-57
2022/04/15 00:37:20;;;;;;;13.30;5.78;;;;;;;;;;5027211;28;20045;-56
2022/04/15 00:39:46;;;;;;;10.25;5.55;;;;;;;;;;5026650;28;20406;-56
2022/04/15 00:42:13;;;;;;;9.50;5.13;;;;;;;;;;5009176;28;20124;-57
2022/04/15 00:44:39;;;;;;;9.50;5.05;;;;;;;;;;5006269;28;20038;-57
2022/04/15 00:47:17;;;;;;;9.30;5.00;;;;;;;;;;5007393;28;20642;-56
2022/04/15 00:49:44;;;;;;;13.40;5.30;;;;;;;;;;5007223;28;20129;-57
2022/04/15 00:52:11;;;;;;;11.88;4.90;;;;;;;;;;5006871;28;20519;-56
2022/04/15 00:54:39;;;;;;;15.82;5.65;;;;;;;;;;5006784;28;20124;-56
2022/04/15 00:57:05;;;;;;;11.60;5.15;;;;;;;;;;4989321;28;20404;-57
2022/04/15 00:59:32;;;;;;;13.02;5.00;;;;;;;;;;5006360;28;20049;-56
2022/04/15 01:01:59;;;;;;;12.68;5.18;;;;;;;;;;4989502;28;20408;-56
2022/04/15 01:04:25;;;;;;;8.70;5.25;;;;;;;;;;5006810;28;20053;-56
2022/04/15 01:06:53;;;;;;;9.05;5.07;;;;;;;;;;5006676;28;20048;-56
2022/04/15 01:09:21;;;;;;;11.30;5.03;;;;;;;;;;5009696;28;20073;-56
2022/04/15 01:11:47;;;;;;;10.93;5.53;;;;;;;;;;5026292;28;20065;-57
2022/04/15 01:14:14;;;;;;;11.60;4.95;;;;;;;;;;5025161;28;20053;-57
2022/04/15 01:16:40;;;;;;;7.82;4.63;;;;;;;;;;5026389;28;20072;-56
2022/04/15 01:19:06;;;;;;;9.63;5.28;;;;;;;;;;5026288;28;20388;-56
2022/04/15 01:21:35;;;;;;;10.07;5.53;;;;;;;;;;5025996;28;20048;-57
2022/04/15 01:24:01;;;;;;;;;;;;;;;;;;5026533;28;20100;-56
2022/04/15 01:26:27;;;;;;;13.45;5.15;;;;;;;;;;5026453;28;19921;-57
2022/04/15 01:28:53;;;;;;;11.18;5.72;;;;;;;;;;5024403;28;20403;-57
2022/04/15 01:31:20;;;;;;;9.27;5.25;;;;;;;;;;5026235;28;20405;-57
2022/04/15 01:33:46;;;;;;;11.13;5.38;;;;;;;;;;5026083;28;20041;-57
2022/04/15 01:36:14;;;;;;;10.40;5.35;;;;;;;;;;5025859;28;20041;-57
2022/04/15 01:38:40;;;;;;;12.03;4.87;;;;;;;;;;5025601;28;20057;-57
2022/04/15 01:41:06;;;;;;;14.98;5.45;;;;;;;;;;5026291;28;20068;-57
2022/04/15 01:43:32;;;;;;;8.20;4.65;;;;;;;;;;5024524;28;20056;-56
2022/04/15 01:45:58;;;;;;;12.07;5.05;;;;;;;;;;5026031;28;20068;-57
2022/04/15 01:48:24;;;;;;;10.27;5.30;;;;;;;;;;5025761;28;20060;-57
2022/04/15 01:50:51;;;;;;;10.70;5.25;;;;;;;;;;5025011;28;20056;-57
2022/04/15 01:53:17;;;;;;;10.43;5.10;;;;;;;;;;5025605;28;20124;-56
2022/04/15 01:55:43;;;;;;;9.32;5.30;;;;;;;;;;5025587;28;20109;-56
2022/04/15 01:58:09;;;;;;;10.00;4.80;;;;;;;;;;5024254;28;20487;-56
2022/04/15 02:00:35;;;;;;;11.43;5.28;;;;;;;;;;5007547;28;20042;-57
2022/04/15 02:03:01;;;;;;;12.90;6.03;;;;;;;;;;5025597;28;20152;-56
2022/04/15 02:05:27;;;;;;;8.77;4.80;;;;;;;;;;5025763;28;20127;-57
2022/04/15 02:07:53;;;;;;;13.10;5.03;;;;;;;;;;5025096;28;20072;-56
2022/04/15 02:10:20;;;;;;;12.27;4.47;;;;;;;;;;5025407;28;20084;-56
2022/04/15 02:12:46;;;;;;;15.98;5.32;;;;;;;;;;5023904;28;20048;-57
2022/04/15 02:15:12;;;;;;;11.48;5.25;;;;;;;;;;5025243;28;20506;-57
2022/04/15 02:17:38;;;;;;;12.50;5.95;;;;;;;;;;5025117;28;20095;-57
2022/04/15 02:20:05;;;;;;;10.70;5.55;;;;;;;;;;5025290;28;20473;-57
2022/04/15 02:22:31;;;;;;;13.75;6.07;;;;;;;;;;5025208;28;20045;-57
2022/04/15 02:24:57;;;;;;;10.20;5.20;;;;;;;;;;5025787;28;20053;-57
2022/04/15 02:27:23;;;;;;;12.90;5.18;;;;;;;;;;5023821;28;20240;-57
2022/04/15 02:29:49;;;;;;;10.15;4.78;;;;;;;;;;5025227;28;20084;-57
2022/04/15 02:32:15;;;;;;;12.80;5.80;;;;;;;;;;5025372;28;20045;-57
2022/04/15 02:34:41;;;;;;;13.93;5.63;;;;;;;;;;5024962;28;20854;-57
2022/04/15 02:37:08;;;;;;;12.25;5.68;;;;;;;;;;5024755;28;20063;-58
2022/04/15 02:39:34;;;;;;;8.20;5.57;;;;;;;;;;5024193;28;20050;-57
2022/04/15 02:42:00;;;;;;;10.88;5.28;;;;;;;;;;5024887;28;20045;-57
2022/04/15 02:44:27;;;;;;;13.88;5.30;;;;;;;;;;5024435;28;20064;-57
2022/04/15 02:46:54;;;;;;;11.43;5.32;;;;;;;;;;5024562;28;20162;-57
2022/04/15 02:49:20;;;;;;;10.88;5.85;;;;;;;;;;5007646;28;20300;-57
2022/04/15 02:51:46;;;;;;;11.02;5.65;;;;;;;;;;5024396;28;20110;-57
2022/04/15 02:54:12;;;;;;;9.25;5.32;;;;;;;;;;5025048;28;20041;-57
2022/04/15 02:56:38;;;;;;;10.35;5.13;;;;;;;;;;5024234;28;20065;-56
2022/04/15 02:59:04;;;;;;;12.38;5.15;;;;;;;;;;5006471;28;20125;-56
2022/04/15 03:01:31;;;;;;;11.32;5.00;;;;;;;;;;5024531;28;20128;-58
2022/04/15 03:03:57;;;;;;;13.35;5.55;;;;;;;;;;5025523;28;20049;-56
2022/04/15 03:06:23;;;;;;;14.18;5.47;;;;;;;;;;5024899;28;20073;-57
2022/04/15 03:08:49;;;;;;;11.60;5.18;;;;;;;;;;5024823;28;20042;-56
2022/04/15 03:11:15;;;;;;;11.07;5.50;;;;;;;;;;5024049;28;20053;-57
2022/04/15 03:13:41;;;;;;;12.00;5.20;;;;;;;;;;5023861;28;20473;-57
2022/04/15 03:16:07;;;;;;;11.27;5.50;;;;;;;;;;5024512;28;20045;-57
2022/04/15 03:18:34;;;;;;;10.85;5.28;;;;;;;;;;5024253;28;20092;-56
2022/04/15 03:21:00;;;;;;;12.40;5.05;;;;;;;;;;5025184;28;20121;-57
2022/04/15 03:23:26;;;;;;;8.95;5.20;;;;;;;;;;5025050;28;20300;-57
2022/04/15 03:25:52;;;;;;;15.45;5.45;;;;;;;;;;5023935;28;20525;-57
2022/04/15 03:28:19;;;;;;;14.35;5.57;;;;;;;;;;5023942;28;20046;-57
2022/04/15 03:30:45;;;;;;;11.95;5.22;;;;;;;;;;5024637;28;20116;-57
2022/04/15 03:33:11;;;;;;;10.10;5.30;;;;;;;;;;5024415;28;20048;-57
2022/04/15 03:35:38;;;;;;;10.60;5.10;;;;;;;;;;5024336;28;20669;-57
2022/04/15 03:38:04;;;;;;;10.90;5.13;;;;;;;;;;5024281;28;20111;-56
2022/04/15 03:40:30;;;;;;;11.25;5.10;;;;;;;;;;5023962;28;20534;-56
2022/04/15 03:42:56;;;;;;;8.25;4.47;;;;;;;;;;5024156;28;20088;-57
2022/04/15 03:45:23;;;;;;;7.75;4.20;;;;;;;;;;5024267;28;20052;-57
2022/04/15 03:47:50;;;;;;;9.63;5.03;;;;;;;;;;5024088;28;20438;-57
2022/04/15 03:50:17;;;;;;;13.47;5.23;;;;;;;;;;5025972;28;20534;-56
2022/04/15 03:52:46;;;;;;;9.45;5.97;;;;;;;;;;5027755;28;20041;-57
2022/04/15 03:55:13;;;;;;;9.30;5.15;;;;;;;;;;5027741;28;20051;-57
2022/04/15 03:57:39;;;;;;;6.72;4.88;;;;;;;;;;5027018;28;20562;-57
2022/04/15 04:00:08;;;;;;;10.85;4.88;;;;;;;;;;5028041;28;20045;-56
2022/04/15 04:02:34;;;;;;;;;;;;;;;;;;5028073;28;20048;-57
2022/04/15 04:05:00;;;;;;;13.45;4.95;;;;;;;;;;5027731;28;19924;-56
2022/04/15 04:07:27;;;;;;;8.48;4.30;;;;;;;;;;5027941;28;20156;-57
2022/04/15 04:09:53;;;;;;;9.57;5.47;;;;;;;;;;5009474;28;20058;-57
2022/04/15 04:12:19;;;;;;;12.73;4.85;;;;;;;;;;5009485;28;20084;-57
2022/04/15 04:14:45;;;;;;;7.20;5.22;;;;;;;;;;5027227;28;20499;-57
2022/04/15 04:17:11;;;;;;;12.13;5.00;;;;;;;;;;5027520;28;20083;-57
2022/04/15 04:19:38;;;;;;;10.18;5.18;;;;;;;;;;5027480;28;20045;-56
2022/04/15 04:22:04;;;;;;;10.40;4.88;;;;;;;;;;5027664;28;20042;-57
2022/04/15 04:24:30;;;;;;;12.23;5.30;;;;;;;;;;5026385;28;20149;-57
2022/04/15 04:26:56;;;;;;;9.43;5.00;;;;;;;;;;5026900;28;20667;-57
2022/04/15 04:29:23;;;;;;;8.73;5.07;;;;;;;;;;5027322;28;20045;-57
2022/04/15 04:31:49;;;;;;;10.48;5.10;;;;;;;;;;5027301;28;20525;-57
2022/04/15 04:34:15;;;;;;;10.50;5.40;;;;;;;;;;5027485;28;20038;-57
2022/04/15 04:36:41;;;;;;;10.60;5.63;;;;;;;;;;5026997;28;20085;-57
2022/04/15 04:39:08;;;;;;;11.38;5.82;;;;;;;;;;5026413;28;20092;-57
2022/04/15 04:41:35;;;;;;;11.30;5.70;;;;;;;;;;5026790;28;20474;-56
2022/04/15 04:44:01;;;;;;;10.57;6.05;;;;;;;;;;5026487;28;20055;-56
2022/04/15 04:46:27;;;;;;;11.68;6.35;;;;;;;;;;5027371;28;20076;-56
2022/04/15 04:48:53;;;;;;;16.63;7.20;;;;;;;;;;5026510;28;20049;-57
2022/04/15 04:51:19;;;;;;;16.13;7.53;;;;;;;;;;5025954;28;20037;-57
2022/04/15 04:53:45;;;;;;;14.02;7.18;;;;;;;;;;5008783;28;20041;-57
2022/04/15 04:56:12;;;;;;;9.90;5.75;;;;;;;;;;5027058;28;20077;-57
2022/04/15 04:58:38;;;;;;;11.70;5.95;;;;;;;;;;5021078;28;20049;-58
2022/04/15 05:01:04;;;;;;;8.85;5.55;;;;;;;;;;5006897;28;20038;-57
2022/04/15 05:03:30;;;;;;;9.10;4.82;;;;;;;;;;5006395;28;20050;-60
2022/04/15 05:05:56;;;;;;;10.75;4.97;;;;;;;;;;4992865;28;20057;-60
2022/04/15 05:08:22;;;;;;;11.95;5.68;;;;;;;;;;5025553;28;20041;-60
2022/04/15 05:10:48;;;;;;;10.63;5.30;;;;;;;;;;5026258;28;20625;-60
2022/04/15 05:13:15;;;;;;;6.85;4.60;;;;;;;;;;5026018;28;20487;-60
2022/04/15 05:15:41;;;;;;;7.65;4.35;;;;;;;;;;5026672;28;20049;-59
2022/04/15 05:18:07;;;;;;;6.35;4.03;;;;;;;;;;5025715;28;20072;-60
2022/04/15 05:20:34;;;;;;;7.13;3.97;;;;;;;;;;5017382;28;20124;-60
2022/04/15 05:23:00;;;;;;;6.65;4.60;;;;;;;;;;5023395;28;20148;-61
2022/04/15 05:25:27;;;;;;;6.20;3.83;;;;;;;;;;5024060;28;20160;-63
2022/04/15 05:27:53;;;;;;;10.15;4.93;;;;;;;;;;5022396;28;20079;-60
2022/04/15 05:30:20;;;;;;;7.68;4.35;;;;;;;;;;5023752;28;20773;-60
2022/04/15 05:32:46;;;;;;;8.63;4.35;;;;;;;;;;5005765;28;20052;-62
2022/04/15 05:35:12;;;;;;;6.90;4.13;;;;;;;;;;5023714;28;20052;-62
2022/04/15 05:37:38;;;;;;;5.65;3.72;;;;;;;;;;5022967;28;20044;-62
2022/04/15 05:40:04;;;;;;;5.68;4.00;;;;;;;;;;5023179;28;20060;-61
2022/04/15 05:42:30;;;;;;;9.90;3.72;;;;;;;;;;5022335;28;20048;-61
2022/04/15 05:44:57;;;;;;;9.93;4.43;;;;;;;;;;5023597;28;20072;-61
2022/04/15 05:47:23;;;;;;;6.53;4.22;;;;;;;;;;5023781;28;20045;-62
2022/04/15 05:49:49;;;;;;;7.32;4.40;;;;;;;;;;5023482;28;20152;-61
2022/04/15 05:52:15;;;;;;;8.57;4.85;;;;;;;;;;5022834;28;20045;-62
2022/04/15 05:54:41;;;;;;;9.32;4.30;;;;;;;;;;5022961;28;20491;-61
2022/04/15 05:57:07;;;;;;;7.38;4.40;;;;;;;;;;5004429;28;20075;-61
2022/04/15 05:59:34;;;;;;;9.75;4.25;;;;;;;;;;5022960;28;20053;-61
2022/04/15 06:02:00;;;;;;;7.22;3.45;;;;;;;;;;5023424;28;20128;-60
2022/04/15 06:04:26;;;;;;;4.75;3.35;;;;;;;;;;5023587;28;20470;-61
2022/04/15 06:06:52;;;;;;;8.50;3.70;;;;;;;;;;5022203;28;20703;-62
2022/04/15 06:09:18;;;;;;;5.18;3.75;;;;;;;;;;5022803;28;20060;-61
2022/04/15 06:11:44;;;;;;;12.73;3.75;;;;;;;;;;5022305;28;20072;-61
2022/04/15 06:14:11;;;;;;;5.47;3.67;;;;;;;;;;5023066;28;20148;-61
2022/04/15 06:16:39;;;;;;;5.43;3.80;;;;;;;;;;5023048;28;20053;-61
2022/04/15 06:19:06;;;;;;;5.95;3.28;;;;;;;;;;5022645;28;20056;-61
2022/04/15 06:21:32;;;;;;;5.43;2.85;;;;;;;;;;5022401;28;20124;-61
2022/04/15 06:23:58;;;;;;;6.32;3.60;;;;;;;;;;5023258;28;20195;-62
2022/04/15 06:26:25;;;;;;;7.75;3.10;;;;;;;;;;5023011;28;20108;-61
2022/04/15 06:28:51;;;;;;;6.50;3.00;;;;;;;;;;5021613;28;20171;-61
2022/04/15 06:31:17;;;;;;;5.43;3.25;;;;;;;;;;5017128;28;20049;-61
2022/04/15 06:33:43;;;;;;;4.35;3.45;;;;;;;;;;5021803;28;20088;-62
2022/04/15 06:36:10;;;;;;;7.22;3.28;;;;;;;;;;5018969;28;20060;-61
2022/04/15 06:38:36;;;;;;;5.30;3.50;;;;;;;;;;5021823;28;20152;-61
2022/04/15 06:41:02;;;;;;;8.85;3.00;;;;;;;;;;5025225;28;20044;-61
2022/04/15 06:43:28;;;;;;;5.80;3.33;;;;;;;;;;5025177;28;20532;-61
2022/04/15 06:45:54;;;;;;;4.68;3.30;;;;;;;;;;5025183;28;20048;-61
2022/04/15 06:48:20;;;;;;;9.60;3.30;;;;;;;;;;5025475;28;20084;-61
2022/04/15 06:50:46;;;;;;;7.80;3.90;;;;;;;;;;5025281;28;20488;-60
2022/04/15 06:53:13;;;;;;;6.20;3.88;;;;;;;;;;5024807;28;20129;-61
2022/04/15 06:55:39;;;;;;;6.85;3.65;;;;;;;;;;5016790;28;20520;-61
2022/04/15 06:58:05;;;;;;;7.50;4.07;;;;;;;;;;5021342;28;20045;-61
2022/04/15 07:00:31;;;;;;;6.47;3.92;;;;;;;;;;5021775;28;20540;-61
2022/04/15 07:02:58;;;;;;;6.40;4.10;;;;;;;;;;5022569;28;20529;-61
2022/04/15 07:05:25;;;;;;;8.45;4.00;;;;;;;;;;5022609;28;20085;-61
2022/04/15 07:07:51;;;;;;;7.63;4.43;;;;;;;;;;5021819;28;20037;-61
2022/04/15 07:10:18;;;;;;;6.88;4.70;;;;;;;;;;5022543;28;20079;-61
2022/04/15 07:12:44;;;;;;;9.85;5.15;;;;;;;;;;5021890;28;20481;-62
2022/04/15 07:15:10;;;;;;;6.32;4.57;;;;;;;;;;5022981;28;20053;-62
2022/04/15 07:17:36;;;;;;;7.53;4.47;;;;;;;;;;5022614;28;20418;-61
2022/04/15 07:20:03;;;;;;;7.85;4.50;;;;;;;;;;5004267;28;20487;-61
2022/04/15 07:22:29;;;;;;;8.52;4.93;;;;;;;;;;5020159;28;20053;-61
2022/04/15 07:24:56;;;;;;;7.13;4.63;;;;;;;;;;5021827;28;20052;-60
2022/04/15 07:27:22;;;;;;;9.88;5.05;;;;;;;;;;5044325;28;20395;-60
2022/04/15 07:29:48;;;;;;;12.25;5.07;;;;;;;;;;5041037;28;20487;-59
2022/04/15 07:32:21;;;;;;;9.65;5.80;;;;;;;;;;5025946;28;20144;-60
2022/04/15 07:34:47;;;;;;;9.00;5.15;;;;;;;;;;5026274;28;20048;-58
2022/04/15 07:37:13;;;;;;;12.48;5.57;;;;;;;;;;5008428;28;20384;-59
2022/04/15 07:39:39;;;;;;;11.13;6.38;;;;;;;;;;5026027;28;20517;-59
2022/04/15 07:42:06;;;;;;;12.13;6.32;;;;;;;;;;5006099;28;20790;-59
2022/04/15 07:44:32;;;;;;;11.43;5.88;;;;;;;;;;5025873;28;20045;-59
2022/04/15 07:46:59;;;;;;;9.70;6.20;;;;;;;;;;5013458;28;20046;-59
2022/04/15 07:49:25;;;;;;;11.85;6.45;;;;;;;;;;5005801;28;20482;-60
2022/04/15 07:51:51;;;;;;;15.07;6.68;;;;;;;;;;5005815;28;20045;-60
2022/04/15 07:54:17;;;;;;;11.63;6.50;;;;;;;;;;5006522;28;20436;-59
2022/04/15 07:56:43;;;;;;;11.48;6.15;;;;;;;;;;5004931;28;20068;-60
2022/04/15 07:59:10;;;;;;;14.10;6.68;;;;;;;;;;5023156;28;20056;-59
2022/04/15 08:01:37;;;;;;;14.00;6.82;;;;;;;;;;5008268;28;20045;-59
2022/04/15 08:04:03;;;;;;;12.90;6.72;;;;;;;;;;5025671;28;20525;-60
2022/04/15 08:06:29;;;;;;;14.40;6.75;;;;;;;;;;5025520;28;20127;-60
2022/04/15 08:08:56;;;;;;;16.35;7.22;;;;;;;;;;5026228;28;20049;-59
2022/04/15 08:11:23;;;;;;;15.55;7.32;;;;;;;;;;5024753;28;20118;-60
2022/04/15 08:13:49;;;;;;;17.67;8.20;;;;;;;;;;5025179;28;20124;-60
2022/04/15 08:16:16;;;;;;;16.60;8.50;;;;;;;;;;5025275;28;20084;-59
2022/04/15 08:18:42;;;;;;;16.80;7.30;;;;;;;;;;5024520;28;20046;-59
2022/04/15 08:21:08;;;;;;;14.63;8.82;;;;;;;;;;5025332;28;20042;-60
2022/04/15 08:23:34;;;;;;;18.15;8.43;;;;;;;;;;5025577;28;20423;-60
2022/04/15 08:26:00;;;;;;;14.55;8.43;;;;;;;;;;5025374;28;20130;-60
2022/04/15 08:28:27;;;;;;;15.70;7.57;;;;;;;;;;5025046;28;20049;-59
2022/04/15 08:30:53;;;;;;;26.02;18.25;;;;;;;;;;5024909;28;20076;-59
2022/04/15 08:33:20;;;;;;;26.80;16.10;;;;;;;;;;5007645;28;20046;-57
2022/04/15 08:35:47;;;;;;;21.58;9.32;;;;;;;;;;5024722;28;20053;-59
2022/04/15 08:38:14;;;;;;;19.38;9.88;;;;;;;;;;5023821;28;20050;-59
2022/04/15 08:40:43;;;;;;;12.90;7.78;;;;;;;;;;5014218;28;20052;-60
2022/04/15 08:43:10;;;;;;;15.60;8.18;;;;;;;;;;5012046;28;20495;-59
2022/04/15 08:45:40;;;;;;;18.13;7.40;;;;;;;;;;5017540;28;20574;-59
2022/04/15 08:48:06;;;;;;;16.70;7.97;;;;;;;;;;5021009;28;20102;-59
2022/04/15 08:50:32;;;;;;;16.80;7.55;;;;;;;;;;5020413;28;20526;-59
2022/04/15 08:52:59;;;;;;;33.90;19.55;;;;;;;;;;5024866;28;20052;-59
2022/04/15 08:55:27;;;;;;;11.55;7.22;;;;;;;;;;5025166;28;20049;-59
2022/04/15 08:57:54;;;;;;;17.23;8.10;;;;;;;;;;5023724;28;20053;-59
2022/04/15 09:00:20;;;;;;;20.88;10.93;;;;;;;;;;5020214;28;20554;-60
2022/04/15 09:02:47;;;;;;;18.70;8.00;;;;;;;;;;5008723;28;20091;-59
2022/04/15 09:05:14;;;;;;;23.38;9.43;;;;;;;;;;5023343;28;20057;-59
2022/04/15 09:07:40;;;;;;;13.38;8.07;;;;;;;;;;5022866;28;20041;-60
2022/04/15 09:10:08;;;;;;;15.23;7.90;;;;;;;;;;5022852;28;20137;-59
2022/04/15 09:12:35;;;;;;;16.90;8.23;;;;;;;;;;5021698;28;20553;-59
2022/04/15 09:15:11;;;;;;;20.55;12.63;;;;;;;;;;5023205;28;20050;-59
2022/04/15 09:17:37;;;;;;;20.30;8.27;;;;;;;;;;5023241;28;20152;-59
2022/04/15 09:20:05;;;;;;;15.60;7.78;;;;;;;;;;5023013;28;20515;-59
2022/04/15 09:22:31;;;;;;;13.77;7.38;;;;;;;;;;5023385;28;20073;-59
2022/04/15 09:24:58;;;;;;;18.17;7.88;;;;;;;;;;5022879;28;20054;-59
2022/04/15 09:27:24;;;;;;;16.23;7.50;;;;;;;;;;5022689;28;20041;-59
2022/04/15 09:29:52;;;;;;;13.00;7.32;;;;;;;;;;5023184;28;20491;-59
2022/04/15 09:32:19;;;;;;;14.30;6.90;;;;;;;;;;5022724;28;20085;-59
2022/04/15 09:34:54;;;;;;;12.98;6.97;;;;;;;;;;5020064;28;20041;-59
2022/04/15 09:37:21;;;;;;;9.63;5.63;;;;;;;;;;5002464;28;20053;-59
2022/04/15 09:40:02;;;;;;;8.90;5.13;;;;;;;;;;5022921;28;20067;-59
2022/04/15 09:42:29;;;;;;;10.07;5.47;;;;;;;;;;5021921;28;20500;-60
2022/04/15 09:44:59;;;;;;;11.25;5.15;;;;;;;;;;5021468;28;20041;-59
2022/04/15 09:47:27;;;;;;;12.32;5.88;;;;;;;;;;5005914;28;20049;-59
2022/04/15 09:49:53;;;;;;;8.98;5.30;;;;;;;;;;5019323;28;20125;-59
2022/04/15 09:52:26;;;;;;;13.63;6.18;;;;;;;;;;5022162;28;20049;-59
2022/04/15 09:54:57;;;;;;;9.48;5.95;;;;;;;;;;5022505;28;20046;-59
2022/04/15 09:57:24;;;;;;;14.85;5.90;;;;;;;;;;5021571;28;20037;-59
2022/04/15 09:59:53;;;;;;;13.73;6.28;;;;;;;;;;5022613;28;20056;-59
2022/04/15 10:02:20;;;;;;;10.35;5.65;;;;;;;;;;5023468;28;20106;-59
2022/04/15 10:04:47;;;;;;;13.35;6.40;;;;;;;;;;5022736;28;20060;-59
2022/04/15 10:07:13;;;;;;;11.57;7.00;;;;;;;;;;5022898;28;20096;-59
2022/04/15 10:09:40;;;;;;;10.95;6.30;;;;;;;;;;5022285;28;20049;-60
2022/04/15 10:12:06;;;;;;;12.57;6.03;;;;;;;;;;5022592;28;20046;-59
2022/04/15 10:14:33;;;;;;;9.73;6.47;;;;;;;;;;5021442;28;20052;-60
2022/04/15 10:17:00;;;;;;;14.57;6.82;;;;;;;;;;5022629;28;20048;-59
2022/04/15 10:19:26;;;;;;;10.73;6.03;;;;;;;;;;5004960;28;20041;-60
2022/04/15 10:21:53;;;;;;;10.10;6.13;;;;;;;;;;5022632;28;20033;-59
2022/04/15 10:24:23;;;;;;;10.88;6.82;;;;;;;;;;5005264;28;20084;-59
2022/04/15 10:26:50;;;;;;;10.43;6.60;;;;;;;;;;5020099;28;20480;-60
2022/04/15 10:29:16;;;;;;;14.40;6.28;;;;;;;;;;5021422;28;20042;-60
2022/04/15 10:31:44;;;;;;;9.65;5.68;;;;;;;;;;5021960;28;20045;-59
2022/04/15 10:34:11;;;;;;;36.72;25.00;;;;;;;;;;5017381;28;20052;-61
2022/04/15 10:36:38;;;;;;;21.67;12.95;;;;;;;;;;5011965;28;20144;-59
2022/04/15 10:39:06;;;;;;;12.93;9.63;;;;;;;;;;5020407;28;20132;-60
2022/04/15 10:41:55;;;;;;;17.27;11.20;;;;;;;;;;5019045;28;20064;-60
2022/04/15 10:44:29;;;;;;;8.82;5.45;;;;;;;;;;5018568;28;20052;-60
2022/04/15 10:47:04;;;;;;;12.93;6.05;;;;;;;;;;5020163;28;20042;-59
2022/04/15 10:49:31;;;;;;;9.30;4.43;;;;;;;;;;5018732;28;20499;-60
2022/04/15 10:51:59;;;;;;;8.38;4.85;;;;;;;;;;5019247;28;20068;-59
2022/04/15 10:54:32;;;;;;;11.45;5.43;;;;;;;;;;5016031;28;20041;-59
2022/04/15 10:57:03;;;;;;;8.73;5.03;;;;;;;;;;5019095;28;20056;-60
2022/04/15 11:02:22;;;;;;;9.18;4.65;;;;;;;;;;5023101;28;20137;-59
2022/04/15 11:04:50;;;;;;;9.10;5.18;;;;;;;;;;5023499;28;20103;-61
2022/04/15 11:07:17;;;;;;;9.10;4.78;;;;;;;;;;5024705;28;20515;-59
2022/04/15 11:09:44;;;;;;;13.68;7.38;;;;;;;;;;5023409;28;20061;-60
2022/04/15 11:12:11;;;;;;;14.07;6.28;;;;;;;;;;5023268;28;20483;-59
2022/04/15 11:14:38;;;;;;;15.93;10.88;;;;;;;;;;5023186;28;20053;-59
2022/04/15 11:17:09;;;;;;;11.88;7.50;;;;;;;;;;5022264;28;20442;-59
2022/04/15 11:19:36;;;;;;;11.80;6.43;;;;;;;;;;5022329;28;20136;-59
2022/04/15 11:22:02;;;;;;;14.73;8.55;;;;;;;;;;5022615;28;20825;-60
2022/04/15 11:24:30;;;;;;;11.48;6.32;;;;;;;;;;5019477;28;20041;-59
2022/04/15 11:26:58;;;;;;;12.63;9.50;;;;;;;;;;5020127;28;20034;-60
2022/04/15 11:29:28;;;;;;;10.43;5.75;;;;;;;;;;5021436;28;20068;-60
2022/04/15 11:31:58;;;;;;;12.10;7.28;;;;;;;;;;5020661;28;20106;-59
2022/04/15 11:34:24;;;;;;;16.08;9.27;;;;;;;;;;5022659;28;20046;-60
2022/04/15 11:36:53;;;;;;;9.73;6.97;;;;;;;;;;5019220;28;20073;-60
2022/04/15 11:39:21;;;;;;;14.32;9.15;;;;;;;;;;5023160;28;20479;-59
2022/04/15 11:41:49;;;;;;;14.90;9.17;;;;;;;;;;5021817;28;20411;-60
2022/04/15 11:44:16;;;;;;;10.63;7.10;;;;;;;;;;5023019;28;20099;-59
2022/04/15 11:46:44;;;;;;;7.53;5.32;;;;;;;;;;5025692;28;20156;-59
2022/04/15 11:49:20;;;;;;;12.93;5.40;;;;;;;;;;5019665;28;20072;-59
2022/04/15 11:51:49;;;;;;;9.98;5.90;;;;;;;;;;5021583;28;20465;-60
2022/04/15 11:54:16;;;;;;;12.10;5.88;;;;;;;;;;5022827;28;20053;-59
2022/04/15 11:56:42;;;;;;;9.00;5.75;;;;;;;;;;5021370;28;20045;-59
2022/04/15 11:59:10;;;;;;;8.98;6.03;;;;;;;;;;5022043;28;20049;-59
2022/04/15 12:01:37;;;;;;;8.68;5.55;;;;;;;;;;5022432;28;20055;-59
2022/04/15 12:04:05;;;;;;;7.60;5.18;;;;;;;;;;5022424;28;20049;-59
2022/04/15 12:06:32;;;;;;;9.07;5.18;;;;;;;;;;5022498;28;20053;-59
2022/04/15 12:08:58;;;;;;;12.35;6.57;;;;;;;;;;5022778;28;20138;-60
2022/04/15 12:11:25;;;;;;;7.88;4.95;;;;;;;;;;5020975;28;20132;-59
2022/04/15 12:13:55;;;;;;;11.02;5.30;;;;;;;;;;5022280;28;20120;-59
2022/04/15 12:16:21;;;;;;;11.23;5.00;;;;;;;;;;5004802;28;20087;-59
2022/04/15 12:18:47;;;;;;;8.93;5.05;;;;;;;;;;5021907;28;20053;-59
2022/04/15 12:21:13;;;;;;;8.25;5.28;;;;;;;;;;5021667;28;20041;-59
2022/04/15 12:23:39;;;;;;;7.30;5.13;;;;;;;;;;5021612;28;20426;-59
2022/04/15 12:26:08;;;;;;;8.93;5.18;;;;;;;;;;5003142;28;20130;-60
2022/04/15 12:31:27;;;;;;;10.60;5.28;;;;;;;;;;5020202;28;20045;-59
2022/04/15 12:33:54;;;;;;;14.23;7.85;;;;;;;;;;5021674;28;20117;-59
2022/04/15 12:36:20;;;;;;;10.88;5.85;;;;;;;;;;5021017;28;20410;-60
2022/04/15 12:38:59;;;;;;;9.85;7.55;;;;;;;;;;5003413;28;20045;-60
2022/04/15 12:41:37;;;;;;;10.43;6.20;;;;;;;;;;5021940;28;20099;-58
2022/04/15 12:44:18;;;;;;;10.98;5.28;;;;;;;;;;5021240;28;20045;-59
2022/04/15 12:46:47;;;;;;;25.23;6.40;;;;;;;;;;5021698;28;20041;-59
2022/04/15 12:49:24;;;;;;;12.55;5.90;;;;;;;;;;5021991;28;20093;-59
2022/04/15 12:51:50;;;;;;;12.30;5.60;;;;;;;;;;5020845;28;20131;-59
2022/04/15 12:54:16;;;;;;;11.57;5.60;;;;;;;;;;5021471;28;20045;-60
2022/04/15 12:56:56;;;;;;;9.90;5.63;;;;;;;;;;5020433;28;20037;-58
2022/04/15 12:59:22;;;;;;;11.63;6.07;;;;;;;;;;5020838;28;20053;-59
2022/04/15 13:01:49;;;;;;;9.88;5.68;;;;;;;;;;5017998;28;20163;-58
2022/04/15 13:04:16;;;;;;;9.95;6.47;;;;;;;;;;5021952;28;20057;-59
2022/04/15 13:06:43;;;;;;;9.43;6.13;;;;;;;;;;5020049;28;20038;-59
2022/04/15 13:09:09;;;;;;;9.25;5.88;;;;;;;;;;5018483;28;20049;-59
2022/04/15 13:11:36;;;;;;;9.93;5.80;;;;;;;;;;5020057;28;20514;-59
2022/04/15 13:14:03;;;;;;;10.48;6.10;;;;;;;;;;5020616;28;20072;-59
2022/04/15 13:16:29;;;;;;;9.32;5.53;;;;;;;;;;5020581;28;20041;-59
2022/04/15 13:18:55;;;;;;;12.50;6.15;;;;;;;;;;5003628;28;20048;-59
2022/04/15 13:21:22;;;;;;;8.45;5.68;;;;;;;;;;5020851;28;20053;-60
2022/04/15 13:23:48;;;;;;;14.48;6.57;;;;;;;;;;5019728;28;20045;-60
2022/04/15 13:26:15;;;;;;;9.18;5.93;;;;;;;;;;5019766;28;20045;-61
2022/04/15 13:28:41;;;;;;;12.00;6.25;;;;;;;;;;5021996;28;20052;-60
2022/04/15 13:31:09;;;;;;;9.38;6.22;;;;;;;;;;5020605;28;20053;-59
2022/04/15 13:33:35;;;;;;;9.00;5.63;;;;;;;;;;5021271;28;20037;-60
2022/04/15 13:36:01;;;;;;;9.50;6.35;;;;;;;;;;5021140;28;20867;-61
2022/04/15 13:38:28;;;;;;;11.02;5.88;;;;;;;;;;5020166;28;20037;-61
2022/04/15 13:40:54;;;;;;;7.53;5.22;;;;;;;;;;5018305;28;20566;-61
2022/04/15 13:43:21;;;;;;;12.15;5.80;;;;;;;;;;5019575;28;20037;-61
2022/04/15 13:45:47;;;;;;;12.55;5.88;;;;;;;;;;5020429;28;20064;-61
2022/04/15 13:48:13;;;;;;;11.13;6.43;;;;;;;;;;5020472;28;20061;-61
2022/04/15 13:50:39;;;;;;;9.32;6.03;;;;;;;;;;5019228;28;20052;-62
2022/04/15 13:58:35;;;;;;;10.63;6.43;;;;;;;;;;5019946;28;20060;-62
2022/04/15 14:01:02;;;;;;;12.77;6.47;;;;;;;;;;5020423;28;20115;-61
2022/04/15 14:03:28;;;;;;;13.13;6.20;;;;;;;;;;5021159;28;20045;-59
2022/04/15 14:05:54;;;;;;;9.63;5.80;;;;;;;;;;5019897;28;20132;-61
2022/04/15 14:08:21;;;;;;;10.10;5.55;;;;;;;;;;5018118;28;20269;-61
2022/04/15 14:10:48;;;;;;;8.10;6.05;;;;;;;;;;5012145;28;20136;-61
2022/04/15 14:13:15;;;;;;;23.20;13.82;;;;;;;;;;5020298;28;20064;-62
2022/04/15 14:15:41;;;;;;;58.60;30.27;;;;;;;;;;5018904;28;20052;-61
2022/04/15 14:18:08;;;;;;;162.75;92.70;;;;;;;;;;5019776;28;20128;-62
2022/04/15 14:20:35;;;;;;;24.83;16.08;;;;;;;;;;5018253;28;20041;-61
2022/04/15 14:23:01;;;;;;;27.50;20.10;;;;;;;;;;5020360;28;20057;-61
2022/04/15 14:25:27;;;;;;;12.73;8.63;;;;;;;;;;5018611;28;20123;-60
2022/04/15 14:27:53;;;;;;;10.63;6.50;;;;;;;;;;5018586;28;20045;-61
2022/04/15 14:30:19;;;;;;;16.73;9.93;;;;;;;;;;5020295;28;20045;-61
2022/04/15 14:32:46;;;;;;;9.95;6.15;;;;;;;;;;5019835;28;20052;-61
2022/04/15 14:35:15;;;;;;;13.32;6.05;;;;;;;;;;5019375;28;20411;-61
2022/04/15 14:37:41;;;;;;;18.27;13.13;;;;;;;;;;5014272;28;20821;-61
2022/04/15 14:40:08;;;;;;;12.25;7.63;;;;;;;;;;5020187;28;20111;-58
2022/04/15 14:42:34;;;;;;;10.23;5.85;;;;;;;;;;5021899;28;20037;-61
2022/04/15 14:45:01;;;;;;;10.07;6.75;;;;;;;;;;5021764;28;20115;-61